createdAt,value
2023-01-25T00:00:19.660Z,10.88
2023-01-25T00:02:53.137Z,5.20
2023-01-25T00:05:26.900Z,12.18
2023-01-25T00:08:06.663Z,9.20
2023-01-25T00:10:40.318Z,7.85
2023-01-25T00:13:13.891Z,5.80
2023-01-25T00:15:47.522Z,7.20
2023-01-25T00:18:21.424Z,8.63
2023-01-25T00:20:54.904Z,5.85
2023-01-25T00:23:30.453Z,8.13
2023-01-25T00:26:03.917Z,6.53
2023-01-25T00:28:37.492Z,9.70
2023-01-25T00:31:17.879Z,7.70
2023-01-25T00:33:53.567Z,6.88
2023-01-25T00:36:35.586Z,14.68
2023-01-25T00:39:14.832Z,10.60
2023-01-25T00:41:48.715Z,7.00
2023-01-25T00:44:22.204Z,5.03
2023-01-25T00:46:55.789Z,6.85
2023-01-25T00:49:31.728Z,6.82
2023-01-25T00:52:06.808Z,6.25
2023-01-25T00:54:42.207Z,8.25
2023-01-25T00:57:16.196Z,5.78
2023-01-25T00:59:51.052Z,7.55
2023-01-25T01:02:27.004Z,9.98
2023-01-25T01:05:01.453Z,9.88
2023-01-25T01:07:35.151Z,12.13
2023-01-25T01:10:11.232Z,8.25
2023-01-25T01:12:44.978Z,5.00
2023-01-25T01:15:21.108Z,4.72
2023-01-25T01:17:54.676Z,5.78
2023-01-25T01:20:28.827Z,7.57
2023-01-25T01:23:02.286Z,10.90
2023-01-25T01:25:38.365Z,7.65
2023-01-25T01:28:14.983Z,6.07
2023-01-25T01:30:48.471Z,6.68
2023-01-25T01:33:22.090Z,5.97
2023-01-25T01:35:56.009Z,4.22
2023-01-25T01:38:29.524Z,5.78
2023-01-25T01:41:04.835Z,6.40
2023-01-25T01:43:39.347Z,10.25
2023-01-25T01:46:22.312Z,4.13
2023-01-25T01:49:02.117Z,6.57
2023-01-25T01:51:44.941Z,4.32
2023-01-25T01:54:29.747Z,6.90
2023-01-25T01:57:09.088Z,29.38
2023-01-25T01:59:47.405Z,14.27
2023-01-25T02:02:21.161Z,5.10
2023-01-25T02:05:05.526Z,6.00
2023-01-25T02:07:40.532Z,5.20
2023-01-25T02:10:15.568Z,8.00
2023-01-25T02:12:53.924Z,4.55
2023-01-25T02:15:30.042Z,4.57
2023-01-25T02:18:04.466Z,3.30
2023-01-25T02:20:40.230Z,5.20
2023-01-25T02:23:22.542Z,3.40
2023-01-25T02:26:00.569Z,3.45
2023-01-25T02:28:39.830Z,3.90
2023-01-25T02:31:13.650Z,5.22
2023-01-25T02:33:47.213Z,4.47
2023-01-25T02:36:25.715Z,3.55
2023-01-25T02:39:02.217Z,4.40
2023-01-25T02:41:39.227Z,5.95
2023-01-25T02:44:16.220Z,3.22
2023-01-25T02:46:49.709Z,2.45
2023-01-25T02:49:23.484Z,3.38
2023-01-25T02:51:57.585Z,2.10
2023-01-25T02:54:32.013Z,3.35
2023-01-25T02:57:08.139Z,2.42
2023-01-25T02:59:49.549Z,2.05
2023-01-25T03:02:23.402Z,2.08
2023-01-25T03:04:57.755Z,2.50
2023-01-25T03:07:31.279Z,2.92
2023-01-25T03:10:05.797Z,3.28
2023-01-25T03:12:43.444Z,4.43
2023-01-25T03:15:17.709Z,2.95
2023-01-25T03:17:51.211Z,1.70
2023-01-25T03:20:25.258Z,3.42
2023-01-25T03:22:59.179Z,3.05
2023-01-25T03:25:33.021Z,2.65
2023-01-25T03:28:17.268Z,3.38
2023-01-25T03:30:55.199Z,10.65
2023-01-25T03:33:28.826Z,2.20
2023-01-25T03:36:02.736Z,2.30
2023-01-25T03:38:38.173Z,2.53
2023-01-25T03:41:15.029Z,1.77
2023-01-25T03:43:53.171Z,3.90
2023-01-25T03:46:27.203Z,1.25
2023-01-25T03:49:00.886Z,2.05
2023-01-25T03:51:34.529Z,3.58
2023-01-25T03:54:10.243Z,7.05
2023-01-25T03:56:44.088Z,1.15
2023-01-25T03:59:24.388Z,1.48
2023-01-25T04:01:58.061Z,2.72
2023-01-25T04:04:31.712Z,4.70
2023-01-25T04:07:05.203Z,6.82
2023-01-25T04:09:41.008Z,3.72
2023-01-25T04:12:16.113Z,3.63
2023-01-25T04:14:51.216Z,2.90
2023-01-25T04:17:29.391Z,2.00
2023-01-25T04:20:09.808Z,2.88
2023-01-25T04:22:46.587Z,3.35
2023-01-25T04:25:21.754Z,1.60
2023-01-25T04:27:59.583Z,1.73
2023-01-25T04:30:34.577Z,2.33
2023-01-25T04:33:08.917Z,1.92
2023-01-25T04:35:42.719Z,1.73
2023-01-25T04:38:16.741Z,0.98
2023-01-25T04:40:53.650Z,2.38
2023-01-25T04:43:27.315Z,2.63
2023-01-25T04:46:07.172Z,1.55
2023-01-25T04:48:41.044Z,1.63
2023-01-25T04:51:15.119Z,1.63
2023-01-25T04:53:48.937Z,3.38
2023-01-25T04:56:22.556Z,2.28
2023-01-25T04:59:00.296Z,2.33
2023-01-25T05:01:36.765Z,1.08
2023-01-25T05:04:13.273Z,2.30
2023-01-25T05:06:50.720Z,1.77
2023-01-25T05:09:24.431Z,2.17
2023-01-25T05:11:58.081Z,3.25
2023-01-25T05:14:42.983Z,1.65
2023-01-25T05:17:18.316Z,2.15
2023-01-25T05:19:51.827Z,1.90
2023-01-25T05:22:28.630Z,5.20
2023-01-25T05:25:04.078Z,2.03
2023-01-25T05:27:40.896Z,1.73
2023-01-25T05:30:36.552Z,4.05
2023-01-25T05:33:27.899Z,5.28
2023-01-25T05:36:01.372Z,3.65
2023-01-25T05:38:39.815Z,2.83
2023-01-25T05:41:16.339Z,2.17
2023-01-25T05:43:52.166Z,2.47
2023-01-25T05:46:25.789Z,1.27
2023-01-25T05:49:03.067Z,1.80
2023-01-25T05:51:38.494Z,1.05
2023-01-25T05:54:15.885Z,1.65
2023-01-25T05:56:55.044Z,2.72
2023-01-25T05:59:29.636Z,1.40
2023-01-25T06:02:05.457Z,2.95
2023-01-25T06:04:40.532Z,2.97
2023-01-25T06:07:15.865Z,1.83
2023-01-25T06:09:52.515Z,1.08
2023-01-25T06:12:26.015Z,2.42
2023-01-25T06:14:59.911Z,2.17
2023-01-25T06:17:33.411Z,2.97
2023-01-25T06:20:25.183Z,2.08
2023-01-25T06:23:13.943Z,2.65
2023-01-25T06:25:47.579Z,4.88
2023-01-25T06:28:21.101Z,1.45
2023-01-25T06:30:56.271Z,2.90
2023-01-25T06:33:29.817Z,2.95
2023-01-25T06:36:06.906Z,2.65
2023-01-25T06:38:40.773Z,2.95
2023-01-25T06:41:14.290Z,4.07
2023-01-25T06:43:48.532Z,3.08
2023-01-25T06:46:22.133Z,3.47
2023-01-25T06:48:56.618Z,3.80
2023-01-25T06:51:31.699Z,3.20
2023-01-25T06:54:05.572Z,5.75
2023-01-25T06:56:39.054Z,3.58
2023-01-25T06:59:12.476Z,5.68
2023-01-25T07:01:46.416Z,4.63
2023-01-25T07:04:19.919Z,5.35
2023-01-25T07:06:55.473Z,5.85
2023-01-25T07:09:28.939Z,5.38
2023-01-25T07:12:04.721Z,7.05
2023-01-25T07:14:38.557Z,5.80
2023-01-25T07:17:12.031Z,6.63
2023-01-25T07:19:45.519Z,4.07
2023-01-25T07:22:20.607Z,2.88
2023-01-25T07:24:54.118Z,4.07
2023-01-25T07:27:29.297Z,4.03
2023-01-25T07:30:04.279Z,6.55
2023-01-25T07:32:37.825Z,6.60
2023-01-25T07:35:11.807Z,11.27
2023-01-25T07:37:46.689Z,7.00
2023-01-25T07:40:20.587Z,8.38
2023-01-25T07:42:55.221Z,7.82
2023-01-25T07:45:31.379Z,4.45
2023-01-25T07:48:10.823Z,7.00
2023-01-25T07:50:46.812Z,5.82
2023-01-25T07:53:22.906Z,8.88
2023-01-25T07:55:59.652Z,12.40
2023-01-25T07:58:33.212Z,7.30
2023-01-25T08:01:10.640Z,6.18
2023-01-25T08:03:44.870Z,6.65
2023-01-25T08:06:19.567Z,6.40
2023-01-25T08:08:56.070Z,5.00
2023-01-25T08:11:31.424Z,4.88
2023-01-25T08:14:05.474Z,2.33
2023-01-25T08:16:38.977Z,4.22
2023-01-25T08:19:13.427Z,2.97
2023-01-25T08:21:46.992Z,6.05
2023-01-25T08:24:25.645Z,4.00
2023-01-25T08:26:59.670Z,5.57
2023-01-25T08:29:33.096Z,6.10
2023-01-25T08:32:07.836Z,6.70
2023-01-25T08:34:41.551Z,4.63
2023-01-25T08:37:15.062Z,8.48
2023-01-25T08:39:50.149Z,3.25
2023-01-25T08:42:23.667Z,3.65
2023-01-25T08:44:57.291Z,9.50
2023-01-25T08:47:33.822Z,8.63
2023-01-25T08:50:08.952Z,4.47
2023-01-25T08:52:42.849Z,4.10
2023-01-25T08:55:18.202Z,3.22
2023-01-25T08:57:51.746Z,1.40
2023-01-25T09:00:25.332Z,1.85
2023-01-25T09:02:59.927Z,2.15
2023-01-25T09:05:35.763Z,1.65
2023-01-25T09:08:11.268Z,2.42
2023-01-25T09:10:46.162Z,4.20
2023-01-25T09:13:19.718Z,2.47
2023-01-25T09:15:53.285Z,3.10
2023-01-25T09:18:26.925Z,5.20
2023-01-25T09:21:01.332Z,1.27
2023-01-25T09:23:44.290Z,3.50
2023-01-25T09:26:26.203Z,4.18
2023-01-25T09:28:59.769Z,3.55
2023-01-25T09:31:33.702Z,4.20
2023-01-25T09:34:20.538Z,2.88
2023-01-25T09:36:54.056Z,3.65
2023-01-25T09:39:27.781Z,1.23
2023-01-25T09:42:25.896Z,4.63
2023-01-25T09:45:13.916Z,3.08
2023-01-25T09:47:52.196Z,3.35
2023-01-25T09:50:52.531Z,2.95
2023-01-25T09:53:34.244Z,4.32
2023-01-25T09:56:14.178Z,4.60
2023-01-25T09:58:52.623Z,2.13
2023-01-25T10:01:38.769Z,2.42
2023-01-25T10:04:17.484Z,4.00
2023-01-25T10:07:00.615Z,6.10
2023-01-25T10:09:42.751Z,1.98
2023-01-25T10:12:20.579Z,1.83
2023-01-25T10:14:59.810Z,1.52
2023-01-25T10:17:38.509Z,1.75
2023-01-25T10:20:25.921Z,3.53
2023-01-25T10:23:28.524Z,2.85
2023-01-25T10:26:04.587Z,4.45
2023-01-25T10:28:43.914Z,11.75
2023-01-25T10:31:34.159Z,5.25
2023-01-25T10:34:20.278Z,5.03
2023-01-25T10:36:56.387Z,8.13
2023-01-25T10:39:31.917Z,5.45
2023-01-25T10:42:09.993Z,4.00
2023-01-25T10:44:43.700Z,2.55
2023-01-25T10:47:24.705Z,1.98
2023-01-25T10:49:59.826Z,5.07
2023-01-25T10:52:35.718Z,2.60
2023-01-25T10:55:15.978Z,3.50
2023-01-25T10:57:51.722Z,3.50
2023-01-25T11:00:30.141Z,1.45
2023-01-25T11:03:05.969Z,2.13
2023-01-25T11:05:41.831Z,3.40
2023-01-25T11:08:25.537Z,3.00
2023-01-25T11:11:00.225Z,3.05
2023-01-25T11:13:35.163Z,4.53
2023-01-25T11:16:22.283Z,2.92
2023-01-25T11:18:58.917Z,4.38
2023-01-25T11:21:34.886Z,5.90
2023-01-25T11:24:19.144Z,2.38
2023-01-25T11:26:55.606Z,3.90
2023-01-25T11:29:29.295Z,4.00
2023-01-25T11:32:03.847Z,3.13
2023-01-25T11:34:39.271Z,7.15
2023-01-25T11:37:33.927Z,6.45
2023-01-25T11:40:18.461Z,5.70
2023-01-25T11:43:07.584Z,3.22
2023-01-25T11:46:04.707Z,3.72
2023-01-25T11:49:04.644Z,4.35
2023-01-25T11:51:51.212Z,9.32
2023-01-25T11:54:45.241Z,8.50
2023-01-25T11:57:40.778Z,4.47
2023-01-25T12:00:31.472Z,6.90
2023-01-25T12:03:37.718Z,6.57
2023-01-25T12:06:16.389Z,10.82
2023-01-25T12:09:10.769Z,7.97
2023-01-25T12:12:00.438Z,7.88
2023-01-25T12:14:50.132Z,6.80
2023-01-25T12:17:37.833Z,5.60
2023-01-25T12:20:27.894Z,4.85
2023-01-25T12:23:25.366Z,8.68
2023-01-25T12:26:14.001Z,5.50
2023-01-25T12:29:24.328Z,10.52
2023-01-25T12:32:03.850Z,18.15
2023-01-25T12:34:41.239Z,8.82
2023-01-25T12:37:22.921Z,7.95
2023-01-25T12:40:01.999Z,7.68
2023-01-25T12:42:52.007Z,5.68
2023-01-25T12:45:31.727Z,6.05
2023-01-25T12:48:33.306Z,6.57
2023-01-25T12:51:11.607Z,6.65
2023-01-25T12:53:48.385Z,8.30
2023-01-25T12:56:35.456Z,10.18
2023-01-25T12:59:24.133Z,13.25
2023-01-25T13:02:05.991Z,9.30
2023-01-25T13:04:56.910Z,13.52
2023-01-25T13:07:37.082Z,8.25
2023-01-25T13:10:23.856Z,10.10
2023-01-25T13:13:31.954Z,7.80
2023-01-25T13:16:25.889Z,33.45
2023-01-25T13:19:00.907Z,23.65
2023-01-25T13:22:01.154Z,5.80
2023-01-25T13:24:56.350Z,7.75
2023-01-25T13:27:32.300Z,10.00
2023-01-25T13:30:32.859Z,8.68
2023-01-25T13:33:08.446Z,9.65
2023-01-25T13:35:45.720Z,6.28
2023-01-25T13:38:36.364Z,9.43
2023-01-25T13:41:17.246Z,11.02
2023-01-25T13:44:09.303Z,17.42
2023-01-25T13:46:43.473Z,23.63
2023-01-25T13:49:26.213Z,10.13
2023-01-25T13:54:34.562Z,13.40
2023-01-25T13:57:14.257Z,12.20
2023-01-25T13:59:50.675Z,9.13
2023-01-25T14:02:26.829Z,12.82
2023-01-25T14:05:08.435Z,11.02
2023-01-25T14:07:47.513Z,7.97
2023-01-25T14:10:24.561Z,10.35
2023-01-25T14:13:01.508Z,11.15
2023-01-25T14:15:35.313Z,13.35
2023-01-25T14:18:14.767Z,19.02
2023-01-25T14:20:53.682Z,8.27
2023-01-25T14:23:30.848Z,9.48
2023-01-25T14:26:04.903Z,13.27
2023-01-25T14:28:38.887Z,10.13
2023-01-25T14:31:22.324Z,8.23
2023-01-25T14:34:04.306Z,6.75
2023-01-25T14:36:39.657Z,10.52
2023-01-25T14:39:21.899Z,19.83
2023-01-25T14:42:01.385Z,13.13
2023-01-25T14:44:36.061Z,23.13
2023-01-25T14:47:34.027Z,14.57
2023-01-25T14:50:33.612Z,30.25
2023-01-25T14:53:21.234Z,20.98
2023-01-25T14:55:55.148Z,18.30
2023-01-25T14:58:31.727Z,8.25
2023-01-25T15:01:06.071Z,16.90
2023-01-25T15:03:49.429Z,15.50
2023-01-25T15:06:23.741Z,15.95
2023-01-25T15:09:01.376Z,17.77
2023-01-25T15:11:45.696Z,25.05
2023-01-25T15:14:22.373Z,10.32
2023-01-25T15:16:57.934Z,9.30
2023-01-25T15:19:34.399Z,8.90
2023-01-25T15:22:10.203Z,7.03
2023-01-25T15:24:50.379Z,10.48
2023-01-25T15:27:31.045Z,8.80
2023-01-25T15:30:05.539Z,14.65
2023-01-25T15:32:39.328Z,15.45
2023-01-25T15:35:15.030Z,10.40
2023-01-25T15:37:49.954Z,10.25
2023-01-25T15:40:25.228Z,7.60
2023-01-25T15:42:59.505Z,11.85
2023-01-25T15:45:42.973Z,7.47
2023-01-25T15:48:18.383Z,8.38
2023-01-25T15:50:54.364Z,11.82
2023-01-25T15:53:28.151Z,7.65
2023-01-25T15:56:06.263Z,7.07
2023-01-25T15:58:42.464Z,24.67
2023-01-25T16:01:16.596Z,14.45
2023-01-25T16:03:50.446Z,84.38
2023-01-25T16:06:36.360Z,27.95
2023-01-25T16:09:22.902Z,171.60
2023-01-25T16:11:59.517Z,47.90
2023-01-25T16:14:33.201Z,38.00
2023-01-25T16:17:07.143Z,200.98
2023-01-25T16:19:40.902Z,180.70
2023-01-25T16:22:14.835Z,26.70
2023-01-25T16:24:48.612Z,18.00
2023-01-25T16:27:35.519Z,12.88
2023-01-25T16:30:18.514Z,9.93
2023-01-25T16:32:52.888Z,9.75
2023-01-25T16:35:26.550Z,12.48
2023-01-25T16:38:00.231Z,10.10
2023-01-25T16:40:38.631Z,10.15
2023-01-25T16:43:14.197Z,10.23
2023-01-25T16:45:47.967Z,12.52
2023-01-25T16:48:21.591Z,9.15
2023-01-25T16:50:55.420Z,17.83
2023-01-25T16:53:29.017Z,17.52
2023-01-25T16:56:02.799Z,16.92
2023-01-25T16:58:38.848Z,20.60
2023-01-25T17:01:13.620Z,57.13
2023-01-25T17:03:47.528Z,119.47
2023-01-25T17:06:23.366Z,103.28
2023-01-25T17:09:00.329Z,44.35
2023-01-25T17:11:39.342Z,27.48
2023-01-25T17:14:17.782Z,14.52
2023-01-25T17:16:53.854Z,14.43
2023-01-25T17:19:27.829Z,24.52
2023-01-25T17:22:01.660Z,21.35
2023-01-25T17:24:36.435Z,18.83
2023-01-25T17:27:10.142Z,16.83
2023-01-25T17:29:46.157Z,16.10
2023-01-25T17:32:20.393Z,14.20
2023-01-25T17:34:54.926Z,22.10
2023-01-25T17:37:28.677Z,21.80
2023-01-25T17:40:02.280Z,28.85
2023-01-25T17:42:35.962Z,25.70
2023-01-25T17:45:12.349Z,17.08
2023-01-25T17:47:46.184Z,18.45
2023-01-25T17:50:20.104Z,18.20
2023-01-25T17:52:53.743Z,19.65
2023-01-25T17:55:27.543Z,19.55
2023-01-25T17:58:01.134Z,17.98
2023-01-25T18:00:36.659Z,20.05
2023-01-25T18:03:10.302Z,36.72
2023-01-25T18:05:45.227Z,34.83
2023-01-25T18:08:18.823Z,34.33
2023-01-25T18:10:52.464Z,13.65
2023-01-25T18:13:26.327Z,18.10
2023-01-25T18:16:01.624Z,17.25
2023-01-25T18:18:35.524Z,19.40
2023-01-25T18:21:10.926Z,18.38
2023-01-25T18:23:48.624Z,33.67
2023-01-25T18:26:24.403Z,18.83
2023-01-25T18:29:00.730Z,13.95
2023-01-25T18:31:37.154Z,17.95
2023-01-25T18:34:10.931Z,9.90
2023-01-25T18:36:44.572Z,9.20
2023-01-25T18:39:18.409Z,9.75
2023-01-25T18:41:52.131Z,7.68
2023-01-25T18:44:25.929Z,16.25
2023-01-25T18:47:06.674Z,7.75
2023-01-25T18:49:53.318Z,5.55
2023-01-25T18:52:31.553Z,15.30
2023-01-25T18:55:39.509Z,10.32
2023-01-25T18:58:35.734Z,10.05
2023-01-25T19:01:30.732Z,28.50
2023-01-25T19:04:18.790Z,44.97
2023-01-25T19:14:34.022Z,14.30
2023-01-25T23:10:36.097Z,8.82
2023-01-25T23:13:09.654Z,10.05
2023-01-25T23:15:43.845Z,9.23
2023-01-25T23:18:35.532Z,8.63
2023-01-25T23:21:10.235Z,10.45
2023-01-25T23:23:44.013Z,6.40
2023-01-25T23:26:18.931Z,6.43
2023-01-25T23:28:53.188Z,8.48
2023-01-25T23:31:27.220Z,8.88
2023-01-25T23:34:02.271Z,10.23
2023-01-25T23:36:39.711Z,9.07
2023-01-25T23:39:13.764Z,8.45
2023-01-25T23:41:52.447Z,7.95
2023-01-25T23:44:28.800Z,9.15
2023-01-25T23:47:02.665Z,7.90
2023-01-25T23:49:36.659Z,9.07
2023-01-25T23:52:10.301Z,8.15
2023-01-25T23:54:43.855Z,6.93
2023-01-25T23:57:21.590Z,7.88
2023-01-25T23:59:55.223Z,7.00
